Time;durP1;ratioP1;P1;durP2;ratioP2;P2;SDS_P1;SDS_P2;PMS_P1;PMS_P2;Temp;Humidity;BMP_temperature;BMP_pressure;BME280_temperature;BME280_humidity;BME280_pressure;Samples;Min_cycle;Max_cycle;Signal;HPM_P1;HPM_P2
2020/12/06 09:19:06;;;;;;;11.30;6.17;;;3.60;99.90;;;;;;4699592;23;20245;-73
2020/12/06 09:21:32;;;;;;;11.27;6.03;;;3.70;99.90;;;;;;4897390;29;20237;-73
2020/12/06 09:23:59;;;;;;;14.07;6.10;;;3.70;99.90;;;;;;4897542;29;20211;-73
2020/12/06 09:26:25;;;;;;;9.30;5.97;;;3.80;99.90;;;;;;4897621;29;20257;-73
2020/12/06 09:28:51;;;;;;;9.93;5.77;;;3.90;99.90;;;;;;4897533;29;20210;-73
2020/12/06 09:31:20;;;;;;;14.00;6.27;;;3.80;99.90;;;;;;4897562;29;20211;-73
2020/12/06 09:33:46;;;;;;;13.37;6.53;;;3.80;99.90;;;;;;4897543;29;20214;-73
2020/12/06 09:36:13;;;;;;;12.37;6.53;;;3.70;99.90;;;;;;4897242;29;20238;-73
2020/12/06 09:38:39;;;;;;;10.23;6.43;;;3.80;99.90;;;;;;4897289;29;20213;-73
2020/12/06 09:41:07;;;;;;;12.97;6.73;;;3.80;99.90;;;;;;4897734;29;20214;-72
2020/12/06 09:43:33;;;;;;;12.87;6.07;;;3.90;99.90;;;;;;4900402;29;20210;-73
2020/12/06 09:46:00;;;;;;;10.50;5.83;;;4.00;99.90;;;;;;4900809;29;20242;-73
2020/12/06 09:48:26;;;;;;;13.47;6.27;;;4.00;99.90;;;;;;4900647;29;20214;-73
2020/12/06 09:50:52;;;;;;;15.97;7.57;;;4.20;99.90;;;;;;4900624;29;20214;-74
2020/12/06 09:53:19;;;;;;;14.47;7.27;;;4.30;99.90;;;;;;4900451;29;20603;-76
2020/12/06 09:55:45;;;;;;;12.33;6.83;;;4.40;99.90;;;;;;4900660;29;20281;-75
2020/12/06 09:58:12;;;;;;;14.73;7.33;;;4.50;99.90;;;;;;4900974;29;20210;-74
2020/12/06 10:00:38;;;;;;;13.17;7.40;;;4.60;99.90;;;;;;4900874;29;20607;-74
2020/12/06 10:03:05;;;;;;;17.13;8.03;;;4.70;99.90;;;;;;4900691;29;20210;-74
2020/12/06 10:05:31;;;;;;;13.17;7.27;;;4.70;99.90;;;;;;4900046;29;20241;-74
2020/12/06 10:07:57;;;;;;;12.37;7.00;;;4.60;99.90;;;;;;4900440;29;20237;-73
2020/12/06 10:10:24;;;;;;;16.07;7.73;;;4.60;99.90;;;;;;4900455;29;20217;-73
2020/12/06 10:12:50;;;;;;;13.73;7.70;;;4.60;99.90;;;;;;4900418;29;20241;-74
2020/12/06 10:15:17;;;;;;;14.03;7.53;;;4.50;99.90;;;;;;4900189;29;20238;-75
2020/12/06 10:17:43;;;;;;;12.90;7.07;;;4.60;99.90;;;;;;4900339;29;20237;-74
2020/12/06 10:20:09;;;;;;;19.27;8.03;;;4.70;99.90;;;;;;4900089;29;20218;-74
2020/12/06 10:22:36;;;;;;;12.97;7.10;;;4.60;99.90;;;;;;4900480;29;20218;-74
2020/12/06 10:25:02;;;;;;;14.57;7.57;;;4.80;99.90;;;;;;4900434;29;20235;-75
2020/12/06 10:27:29;;;;;;;13.67;7.10;;;5.00;99.90;;;;;;4900162;29;20222;-74
2020/12/06 10:29:55;;;;;;;13.27;7.47;;;5.20;99.90;;;;;;4900436;29;20214;-74
2020/12/06 10:32:22;;;;;;;12.87;6.93;;;5.20;99.90;;;;;;4900269;29;20233;-75
2020/12/06 10:34:48;;;;;;;10.90;6.83;;;5.30;99.90;;;;;;4899843;29;20226;-75
2020/12/06 10:37:14;;;;;;;12.70;7.27;;;5.20;99.90;;;;;;4900264;29;20261;-75
2020/12/06 10:39:40;;;;;;;14.30;7.30;;;5.20;99.90;;;;;;4900093;29;20210;-74
2020/12/06 10:42:07;;;;;;;14.60;7.60;;;5.30;99.90;;;;;;4900181;29;20300;-74
2020/12/06 10:44:34;;;;;;;13.43;7.10;;;5.30;99.90;;;;;;4899549;29;20674;-74
2020/12/06 10:47:00;;;;;;;12.83;6.33;;;5.20;99.90;;;;;;4899891;29;20210;-74
2020/12/06 10:49:26;;;;;;;13.10;6.63;;;5.30;99.90;;;;;;4899507;29;20214;-74
2020/12/06 10:51:52;;;;;;;13.73;7.10;;;5.40;99.90;;;;;;4900295;29;20210;-75
2020/12/06 10:54:19;;;;;;;15.60;8.23;;;5.50;99.90;;;;;;4899879;29;20211;-75
2020/12/06 10:56:45;;;;;;;13.47;7.40;;;5.70;99.90;;;;;;4899529;29;20246;-74
2020/12/06 10:59:11;;;;;;;15.27;7.70;;;5.80;99.90;;;;;;4899608;29;20662;-75
2020/12/06 11:01:38;;;;;;;16.00;8.03;;;5.80;99.90;;;;;;4899581;29;20207;-75
2020/12/06 11:04:06;;;;;;;15.13;7.57;;;5.70;99.90;;;;;;4899389;29;20214;-74
2020/12/06 11:06:33;;;;;;;13.93;7.60;;;5.70;99.90;;;;;;4899323;29;20234;-75
2020/12/06 11:09:00;;;;;;;14.77;7.47;;;5.60;99.90;;;;;;4899631;29;20226;-73
2020/12/06 11:11:26;;;;;;;16.80;8.67;;;5.60;99.90;;;;;;4899778;29;20214;-75
2020/12/06 11:13:53;;;;;;;16.23;8.60;;;5.70;99.90;;;;;;4899399;29;20211;-75
2020/12/06 11:16:21;;;;;;;18.07;9.17;;;5.70;99.90;;;;;;4899078;29;20246;-75
2020/12/06 11:18:49;;;;;;;17.33;8.53;;;5.80;99.90;;;;;;4899404;29;20214;-74
2020/12/06 11:21:16;;;;;;;16.10;8.70;;;5.70;99.90;;;;;;4899104;29;20218;-75
2020/12/06 11:23:43;;;;;;;16.33;8.27;;;5.70;99.90;;;;;;4899257;29;20677;-75
2020/12/06 11:26:09;;;;;;;16.97;9.50;;;5.40;99.90;;;;;;4898881;29;20646;-75
2020/12/06 11:28:36;;;;;;;18.97;9.03;;;5.30;99.90;;;;;;4899320;29;20226;-75
2020/12/06 11:31:02;;;;;;;17.93;8.73;;;5.40;99.90;;;;;;4899084;29;20210;-74
2020/12/06 11:33:28;;;;;;;15.83;8.10;;;5.40;99.90;;;;;;4899049;29;20225;-76
2020/12/06 11:35:55;;;;;;;18.10;9.50;;;5.50;99.90;;;;;;4898833;29;20245;-73
2020/12/06 11:38:22;;;;;;;16.30;9.33;;;5.60;99.90;;;;;;4898790;29;20665;-75
2020/12/06 11:40:48;;;;;;;16.57;8.70;;;5.60;99.90;;;;;;4898883;29;20210;-75
2020/12/06 11:43:14;;;;;;;18.73;9.17;;;5.60;99.90;;;;;;4898815;29;20210;-76
2020/12/06 11:45:41;;;;;;;17.90;9.03;;;5.70;99.90;;;;;;4898801;29;20237;-76
2020/12/06 11:48:07;;;;;;;17.97;8.40;;;5.70;99.90;;;;;;4898775;29;20674;-74
2020/12/06 11:50:33;;;;;;;12.73;7.13;;;5.70;99.90;;;;;;4898552;29;20222;-74
2020/12/06 11:53:00;;;;;;;14.33;7.47;;;5.40;99.90;;;;;;4898826;29;20547;-73
2020/12/06 11:55:27;;;;;;;13.53;7.17;;;5.60;99.90;;;;;;4898520;29;20713;-73
2020/12/06 11:57:53;;;;;;;16.37;7.60;;;5.50;99.90;;;;;;4898530;29;20242;-75
2020/12/06 12:00:19;;;;;;;17.43;8.23;;;5.30;99.90;;;;;;4898211;29;20210;-75
2020/12/06 12:02:45;;;;;;;16.93;7.83;;;5.20;99.90;;;;;;4898591;29;20217;-75
2020/12/06 12:05:12;;;;;;;16.67;7.47;;;5.50;99.90;;;;;;4897598;29;20786;-76
2020/12/06 12:07:39;;;;;;;19.47;8.83;;;5.30;99.90;;;;;;4898655;29;20262;-75
2020/12/06 12:10:06;;;;;;;20.73;9.17;;;5.40;99.90;;;;;;4898137;29;20220;-75
2020/12/06 12:12:32;;;;;;;15.20;8.67;;;5.50;99.90;;;;;;4898351;29;20218;-75
2020/12/06 12:14:58;;;;;;;18.13;9.47;;;5.70;99.90;;;;;;4898160;29;20230;-74
2020/12/06 12:17:24;;;;;;;15.30;8.53;;;5.60;99.90;;;;;;4898142;29;20245;-74
2020/12/06 12:19:51;;;;;;;19.07;8.97;;;5.40;99.90;;;;;;4897917;29;20226;-75
2020/12/06 12:22:20;;;;;;;16.10;8.20;;;5.40;99.90;;;;;;4898038;29;20210;-75
2020/12/06 12:24:47;;;;;;;18.17;8.27;;;5.30;99.90;;;;;;4897442;29;20233;-75
2020/12/06 12:27:14;;;;;;;19.47;9.40;;;5.30;99.90;;;;;;4898232;29;20210;-75
2020/12/06 12:29:40;;;;;;;15.63;8.27;;;5.50;99.90;;;;;;4897603;29;20214;-75
2020/12/06 12:32:07;;;;;;;18.43;9.20;;;5.50;99.90;;;;;;4897875;29;20574;-75
2020/12/06 12:34:33;;;;;;;15.37;8.40;;;5.70;99.90;;;;;;4897954;29;20558;-75
2020/12/06 12:36:59;;;;;;;14.53;7.57;;;5.40;99.90;;;;;;4898040;29;20736;-74
2020/12/06 12:39:25;;;;;;;16.37;8.43;;;5.30;99.90;;;;;;4898266;29;20210;-75
2020/12/06 12:41:51;;;;;;;16.87;8.80;;;5.20;99.90;;;;;;4897800;29;20218;-74
2020/12/06 12:44:19;;;;;;;16.20;7.93;;;5.20;99.90;;;;;;4898228;29;20300;-74
2020/12/06 12:46:45;;;;;;;16.17;8.67;;;5.20;99.90;;;;;;4898232;29;20338;-76
2020/12/06 12:49:12;;;;;;;16.77;9.63;;;5.30;99.90;;;;;;4897978;29;20249;-75
2020/12/06 12:51:38;;;;;;;16.83;8.30;;;5.50;99.90;;;;;;4897953;29;20222;-74
2020/12/06 12:54:04;;;;;;;18.37;8.47;;;5.70;99.90;;;;;;4897697;29;20221;-76
2020/12/06 12:56:30;;;;;;;20.27;8.07;;;5.50;99.90;;;;;;4897539;29;20246;-74
2020/12/06 12:58:56;;;;;;;16.33;7.80;;;5.50;99.90;;;;;;4897724;29;20207;-75
2020/12/06 13:01:24;;;;;;;17.53;8.33;;;5.60;99.90;;;;;;4898169;29;20218;-74
2020/12/06 13:03:51;;;;;;;14.93;7.77;;;5.50;99.90;;;;;;4897776;29;20603;-75
2020/12/06 13:06:17;;;;;;;20.87;8.17;;;5.40;99.90;;;;;;4897602;29;20241;-74
2020/12/06 13:08:44;;;;;;;17.07;8.37;;;5.40;99.90;;;;;;4897788;29;20546;-74
2020/12/06 13:11:10;;;;;;;16.77;8.57;;;5.60;99.90;;;;;;4897623;29;20210;-74
2020/12/06 13:13:36;;;;;;;17.47;7.57;;;5.80;99.90;;;;;;4897666;29;20577;-75
2020/12/06 13:16:03;;;;;;;17.57;8.00;;;5.90;99.90;;;;;;4898623;29;20230;-74
2020/12/06 13:18:30;;;;;;;16.70;8.27;;;5.90;99.90;;;;;;4901253;29;20247;-75
2020/12/06 13:20:56;;;;;;;19.40;8.73;;;5.90;99.90;;;;;;4900900;29;20214;-75
2020/12/06 13:23:24;;;;;;;20.83;8.30;;;5.80;99.90;;;;;;4901103;29;20221;-75
2020/12/06 13:25:50;;;;;;;18.03;8.50;;;5.40;99.90;;;;;;4901107;29;20230;-75
2020/12/06 13:28:16;;;;;;;22.23;8.43;;;5.20;99.90;;;;;;4901610;29;20258;-74
2020/12/06 13:30:43;;;;;;;19.37;9.50;;;5.10;99.90;;;;;;4901366;29;20210;-75
2020/12/06 13:33:09;;;;;;;17.90;8.80;;;5.50;99.90;;;;;;4901338;29;20218;-74
2020/12/06 13:35:36;;;;;;;16.80;8.53;;;5.70;99.90;;;;;;4900947;29;20267;-75
2020/12/06 13:38:02;;;;;;;21.23;9.30;;;5.20;99.90;;;;;;4900812;29;20245;-74
2020/12/06 13:40:28;;;;;;;18.73;8.60;;;5.20;99.90;;;;;;4900797;29;20229;-76
2020/12/06 13:42:55;;;;;;;18.53;8.80;;;5.30;99.90;;;;;;4900832;29;20210;-75
2020/12/06 13:45:21;;;;;;;20.87;9.13;;;5.30;99.90;;;;;;4900935;29;20245;-75
2020/12/06 13:47:47;;;;;;;17.70;9.03;;;5.40;99.90;;;;;;4900728;29;20210;-75
2020/12/06 13:50:13;;;;;;;17.90;8.27;;;5.40;99.90;;;;;;4900637;29;20662;-74
2020/12/06 13:52:40;;;;;;;16.63;8.20;;;5.10;99.90;;;;;;4900859;29;20218;-74
2020/12/06 13:55:06;;;;;;;17.57;8.57;;;5.00;99.90;;;;;;4900835;29;20235;-75
2020/12/06 13:57:33;;;;;;;17.20;8.53;;;5.20;99.90;;;;;;4900644;29;20242;-75
2020/12/06 13:59:59;;;;;;;16.40;8.47;;;5.50;99.90;;;;;;4900813;29;20217;-75
2020/12/06 14:02:25;;;;;;;19.33;9.40;;;5.50;99.90;;;;;;4900616;29;20237;-74
2020/12/06 14:04:51;;;;;;;15.97;8.33;;;5.60;99.90;;;;;;4900336;29;20230;-75
2020/12/06 14:07:17;;;;;;;17.20;8.03;;;5.60;99.90;;;;;;4900319;29;20221;-75
2020/12/06 14:09:46;;;;;;;16.80;8.00;;;5.70;99.90;;;;;;4900866;29;20241;-75
2020/12/06 14:12:13;;;;;;;18.63;8.83;;;5.70;99.90;;;;;;4900332;29;20291;-74
2020/12/06 14:14:39;;;;;;;17.57;9.20;;;5.70;99.90;;;;;;4900141;29;20214;-74
2020/12/06 14:17:05;;;;;;;17.67;8.33;;;5.60;99.90;;;;;;4900030;29;20246;-76
2020/12/06 14:19:31;;;;;;;18.30;8.90;;;5.60;99.90;;;;;;4900374;29;20242;-74
2020/12/06 14:21:57;;;;;;;18.60;8.90;;;5.70;99.90;;;;;;4900299;29;20551;-75
2020/12/06 14:24:24;;;;;;;16.83;8.97;;;5.80;99.90;;;;;;4900357;29;20218;-75
2020/12/06 14:26:53;;;;;;;20.13;9.37;;;5.90;99.90;;;;;;4900311;29;20234;-75
2020/12/06 14:29:19;;;;;;;21.03;9.70;;;5.90;99.90;;;;;;4899739;29;20309;-75
2020/12/06 14:31:46;;;;;;;17.33;9.07;;;5.90;99.90;;;;;;4900092;29;20235;-75
2020/12/06 14:34:13;;;;;;;21.43;9.90;;;5.70;99.90;;;;;;4899924;29;20218;-75
2020/12/06 14:36:40;;;;;;;17.73;9.00;;;5.50;99.90;;;;;;4899649;29;20238;-75
2020/12/06 14:39:07;;;;;;;18.77;8.47;;;5.40;99.90;;;;;;4900255;29;20221;-75
2020/12/06 14:41:33;;;;;;;16.07;8.43;;;5.30;99.90;;;;;;4899923;29;20226;-75
2020/12/06 14:44:00;;;;;;;19.87;8.70;;;5.40;99.90;;;;;;4900022;29;20214;-75
2020/12/06 14:46:26;;;;;;;22.00;8.83;;;5.40;99.90;;;;;;4899832;29;20764;-75
2020/12/06 14:48:52;;;;;;;21.17;9.87;;;5.60;99.90;;;;;;4899647;29;20214;-74
2020/12/06 14:51:19;;;;;;;18.57;9.07;;;5.60;99.90;;;;;;4900069;29;20207;-77
2020/12/06 14:53:46;;;;;;;20.00;8.73;;;5.40;99.90;;;;;;4900147;29;20214;-77
2020/12/06 14:56:13;;;;;;;20.43;9.87;;;5.20;99.90;;;;;;4899677;29;20230;-75
2020/12/06 14:58:39;;;;;;;14.60;7.53;;;5.30;99.90;;;;;;4899695;29;20235;-75
2020/12/06 15:01:06;;;;;;;23.03;9.53;;;5.30;99.90;;;;;;4899428;29;20218;-75
2020/12/06 15:03:32;;;;;;;17.57;8.63;;;5.50;99.90;;;;;;4899397;29;20207;-74
2020/12/06 15:05:58;;;;;;;17.50;8.33;;;5.40;99.90;;;;;;4899134;29;20230;-74
2020/12/06 15:08:24;;;;;;;22.87;10.67;;;5.50;99.90;;;;;;4899481;29;20214;-76
2020/12/06 15:10:51;;;;;;;18.10;9.17;;;5.50;99.90;;;;;;4899537;29;20214;-75
2020/12/06 15:13:17;;;;;;;22.87;10.03;;;5.50;99.90;;;;;;4899421;29;20210;-75
2020/12/06 15:15:43;;;;;;;22.43;10.07;;;5.60;99.90;;;;;;4899909;29;20237;-75
2020/12/06 15:18:10;;;;;;;22.47;10.10;;;5.60;99.90;;;;;;4899197;29;20280;-75
2020/12/06 15:20:41;;;;;;;20.80;10.10;;;5.50;99.90;;;;;;4898919;29;20585;-75
2020/12/06 15:23:07;;;;;;;24.83;11.63;;;5.50;99.90;;;;;;4898988;29;20238;-75
2020/12/06 15:25:34;;;;;;;23.07;9.37;;;5.40;99.90;;;;;;4899381;29;20249;-74
2020/12/06 15:28:00;;;;;;;21.90;10.47;;;5.30;99.90;;;;;;4899016;29;20221;-75
2020/12/06 15:30:26;;;;;;;20.57;10.43;;;5.30;99.90;;;;;;4899056;29;20237;-74
2020/12/06 15:32:52;;;;;;;18.80;9.60;;;5.30;99.90;;;;;;4898685;29;20223;-75
2020/12/06 15:35:20;;;;;;;19.43;10.13;;;5.40;99.90;;;;;;4898885;29;20238;-76
2020/12/06 15:37:46;;;;;;;23.13;10.33;;;5.40;99.90;;;;;;4898860;29;20244;-76
2020/12/06 15:40:12;;;;;;;21.20;10.87;;;5.30;99.90;;;;;;4898379;29;21015;-76
2020/12/06 15:42:39;;;;;;;25.53;10.37;;;5.20;99.90;;;;;;4898898;29;20685;-75
2020/12/06 15:45:05;;;;;;;22.90;10.27;;;5.30;99.90;;;;;;4898828;29;20237;-74
2020/12/06 15:47:32;;;;;;;24.87;11.80;;;5.40;99.90;;;;;;4898723;29;20219;-75
2020/12/06 15:49:58;;;;;;;28.03;11.37;;;5.30;99.90;;;;;;4898509;29;20674;-74
2020/12/06 15:52:25;;;;;;;23.97;11.50;;;5.30;99.90;;;;;;4898741;29;20220;-74
2020/12/06 15:54:51;;;;;;;24.70;11.20;;;5.20;99.90;;;;;;4898086;29;20706;-74
2020/12/06 15:57:17;;;;;;;23.53;11.57;;;5.30;99.90;;;;;;4898378;29;20238;-75
2020/12/06 15:59:43;;;;;;;23.73;10.90;;;5.20;99.90;;;;;;4898295;29;20214;-73
2020/12/06 16:02:10;;;;;;;25.47;11.70;;;5.00;99.90;;;;;;4898608;29;20249;-74
2020/12/06 16:04:36;;;;;;;26.13;12.57;;;4.90;99.90;;;;;;4898450;29;20207;-74
2020/12/06 16:07:02;;;;;;;22.67;11.13;;;4.90;99.90;;;;;;4898176;29;20638;-73
2020/12/06 16:09:29;;;;;;;33.00;12.67;;;4.70;99.90;;;;;;4898240;29;20213;-74
2020/12/06 16:11:56;;;;;;;29.67;13.50;;;4.80;99.90;;;;;;4898412;29;20225;-74
2020/12/06 16:14:22;;;;;;;27.10;13.20;;;4.50;99.90;;;;;;4898059;29;20547;-74
2020/12/06 16:16:48;;;;;;;27.30;13.30;;;4.60;99.90;;;;;;4898432;29;20254;-74
2020/12/06 16:19:14;;;;;;;26.30;12.37;;;4.60;99.90;;;;;;4898127;29;20222;-74
2020/12/06 16:21:41;;;;;;;28.20;12.93;;;4.60;99.90;;;;;;4898050;29;20678;-74
2020/12/06 16:24:07;;;;;;;25.23;12.03;;;4.60;99.90;;;;;;4898343;29;20214;-73
2020/12/06 16:26:36;;;;;;;24.43;11.77;;;4.60;99.90;;;;;;4898349;29;20254;-74
2020/12/06 16:29:02;;;;;;;26.20;12.80;;;4.70;99.90;;;;;;4898105;29;20217;-74
2020/12/06 16:31:32;;;;;;;24.27;12.07;;;4.80;99.90;;;;;;4898335;29;20214;-75
2020/12/06 16:33:59;;;;;;;27.13;12.23;;;4.80;99.90;;;;;;4898011;29;20214;-73
2020/12/06 16:36:26;;;;;;;27.53;12.87;;;5.00;99.90;;;;;;4898005;29;20310;-74
2020/12/06 16:38:52;;;;;;;25.70;12.53;;;4.90;99.90;;;;;;4897980;29;20210;-76
2020/12/06 16:41:18;;;;;;;22.50;10.97;;;4.90;99.90;;;;;;4898085;29;20210;-76
2020/12/06 16:43:45;;;;;;;23.47;11.53;;;5.00;99.90;;;;;;4897803;29;20689;-73
2020/12/06 16:46:13;;;;;;;25.30;11.80;;;5.10;99.90;;;;;;4897995;29;20339;-76
2020/12/06 16:48:39;;;;;;;22.07;11.13;;;5.10;99.90;;;;;;4897962;29;20214;-73
2020/12/06 16:51:05;;;;;;;27.07;12.03;;;5.00;99.90;;;;;;4900117;29;20210;-74
2020/12/06 16:53:32;;;;;;;23.97;11.33;;;4.90;99.90;;;;;;4904532;29;20331;-75
2020/12/06 16:55:58;;;;;;;22.77;11.07;;;4.80;99.90;;;;;;4903991;29;20230;-74
2020/12/06 16:58:24;;;;;;;26.83;12.37;;;4.70;99.90;;;;;;4897776;29;20238;-75
2020/12/06 17:00:51;;;;;;;29.03;12.67;;;4.70;99.90;;;;;;4902431;29;20210;-74
2020/12/06 17:03:17;;;;;;;27.97;13.03;;;4.70;99.90;;;;;;4902622;29;20210;-74
2020/12/06 17:05:44;;;;;;;26.17;15.20;;;4.60;99.90;;;;;;4902085;29;20226;-73
2020/12/06 17:08:10;;;;;;;28.43;13.00;;;4.50;99.90;;;;;;4902454;29;20210;-73
2020/12/06 17:10:36;;;;;;;28.63;13.73;;;4.60;99.90;;;;;;4902885;29;20214;-74
2020/12/06 17:13:02;;;;;;;23.83;12.03;;;4.60;99.90;;;;;;4902263;29;20221;-74
2020/12/06 17:15:28;;;;;;;24.20;11.67;;;4.40;99.90;;;;;;4902378;29;20230;-74
2020/12/06 17:17:55;;;;;;;25.67;12.07;;;4.40;99.90;;;;;;4902255;29;20246;-74
2020/12/06 17:20:22;;;;;;;27.97;12.53;;;4.50;99.90;;;;;;4901712;29;20218;-75
2020/12/06 17:22:48;;;;;;;28.70;12.57;;;4.60;99.90;;;;;;4901575;29;20213;-78
2020/12/06 17:25:15;;;;;;;26.37;12.90;;;4.60;99.90;;;;;;4920070;29;20582;-70
2020/12/06 17:27:41;;;;;;;24.27;12.70;;;4.50;99.90;;;;;;4917015;29;20210;-70
2020/12/06 17:30:08;;;;;;;27.23;12.87;;;4.40;99.90;;;;;;4920350;29;20210;-70
2020/12/06 17:32:34;;;;;;;24.00;11.83;;;4.30;99.90;;;;;;4905104;29;20221;-72
2020/12/06 17:35:01;;;;;;;24.60;13.07;;;4.20;99.90;;;;;;4900833;29;20230;-71
2020/12/06 17:37:28;;;;;;;29.27;14.30;;;4.20;99.90;;;;;;4899641;29;20256;-73
2020/12/06 17:39:56;;;;;;;27.97;12.87;;;4.10;99.90;;;;;;4900577;29;20305;-77
2020/12/06 17:42:22;;;;;;;25.00;13.07;;;4.10;99.90;;;;;;4900039;29;20246;-74
2020/12/06 17:44:49;;;;;;;25.20;12.63;;;4.00;99.90;;;;;;4900814;29;20206;-77
2020/12/06 17:47:15;;;;;;;29.60;13.17;;;4.00;99.90;;;;;;4900762;29;20562;-70
2020/12/06 17:49:42;;;;;;;26.33;13.67;;;4.00;99.90;;;;;;4899930;29;20206;-79
2020/12/06 17:52:10;;;;;;;23.67;13.00;;;3.90;99.90;;;;;;4900831;29;20206;-83
2020/12/06 17:54:36;;;;;;;23.90;12.50;;;3.90;99.90;;;;;;4903038;29;20244;-77
2020/12/06 17:57:03;;;;;;;28.30;13.10;;;4.00;99.90;;;;;;4900247;29;20234;-79
2020/12/06 17:59:29;;;;;;;23.57;12.17;;;4.00;99.90;;;;;;4900482;29;20736;-75
2020/12/06 18:01:55;;;;;;;28.17;13.80;;;4.10;99.90;;;;;;4900215;29;20206;-77
2020/12/06 18:04:22;;;;;;;25.47;13.20;;;4.00;99.90;;;;;;4897233;29;20218;-84
2020/12/06 18:06:49;;;;;;;24.63;13.07;;;4.00;99.90;;;;;;4897877;29;20236;-72
2020/12/06 18:09:16;;;;;;;28.00;14.57;;;4.00;99.90;;;;;;4900145;29;20215;-78
2020/12/06 18:11:43;;;;;;;32.83;15.17;;;4.00;99.90;;;;;;4899951;29;20211;-80
2020/12/06 18:14:10;;;;;;;29.53;15.40;;;4.00;99.90;;;;;;4899988;29;20213;-74
2020/12/06 18:16:37;;;;;;;36.60;16.73;;;4.00;99.90;;;;;;4898445;29;20589;-75
2020/12/06 18:19:04;;;;;;;29.10;14.60;;;4.00;99.90;;;;;;4908097;29;20213;-78
2020/12/06 18:21:31;;;;;;;35.40;16.73;;;3.60;99.90;;;;;;4912722;29;20621;-79
2020/12/06 18:23:57;;;;;;;31.53;15.60;;;3.40;99.90;;;;;;4921815;29;20210;-78
2020/12/06 18:26:25;;;;;;;30.17;15.40;;;3.60;99.90;;;;;;4914826;29;20246;-78
2020/12/06 18:28:52;;;;;;;29.10;15.37;;;3.70;99.90;;;;;;4896983;29;20218;-76
2020/12/06 18:31:22;;;;;;;31.00;15.33;;;3.70;99.90;;;;;;4896283;29;20214;-69
2020/12/06 18:33:49;;;;;;;27.67;14.17;;;3.60;99.90;;;;;;4898720;29;20574;-73
2020/12/06 18:36:17;;;;;;;27.37;14.07;;;3.60;99.90;;;;;;4898764;29;20235;-74
2020/12/06 18:38:43;;;;;;;26.17;13.57;;;3.60;99.90;;;;;;4911665;29;20305;-75
2020/12/06 18:41:11;;;;;;;30.37;15.03;;;3.70;99.90;;;;;;4901579;29;20233;-74
2020/12/06 18:43:38;;;;;;;29.50;13.80;;;3.60;99.90;;;;;;4898661;29;20210;-74
2020/12/06 18:46:04;;;;;;;26.67;14.60;;;3.50;99.90;;;;;;4898063;29;20238;-74
2020/12/06 18:48:30;;;;;;;29.20;14.43;;;3.40;99.90;;;;;;4898304;29;20700;-74
2020/12/06 18:50:57;;;;;;;35.10;15.93;;;3.40;99.90;;;;;;4897869;29;20210;-74
2020/12/06 18:53:23;;;;;;;32.60;15.93;;;3.50;99.90;;;;;;4897777;29;20571;-75
2020/12/06 18:55:49;;;;;;;33.20;15.23;;;3.40;99.90;;;;;;4897879;29;20234;-74
2020/12/06 18:58:15;;;;;;;35.57;16.07;;;3.40;99.90;;;;;;4897911;29;20245;-74
2020/12/06 19:00:42;;;;;;;39.30;16.37;;;3.40;99.90;;;;;;4897688;29;20214;-74
2020/12/06 19:03:12;;;;;;;35.37;15.60;;;3.30;99.90;;;;;;4898165;29;20214;-75
2020/12/06 19:05:39;;;;;;;34.70;17.07;;;3.20;99.90;;;;;;4898035;29;20322;-74
2020/12/06 19:08:05;;;;;;;30.13;16.07;;;3.20;99.90;;;;;;4898049;29;20285;-74
2020/12/06 19:10:32;;;;;;;32.23;16.80;;;3.20;99.90;;;;;;4897741;29;20210;-74
2020/12/06 19:12:58;;;;;;;28.70;15.50;;;3.20;99.90;;;;;;4897756;29;20218;-75
2020/12/06 19:15:25;;;;;;;28.47;14.60;;;3.10;99.90;;;;;;4896984;29;20779;-74
2020/12/06 19:17:52;;;;;;;28.80;14.20;;;3.20;99.90;;;;;;4897286;29;20238;-74
2020/12/06 19:20:19;;;;;;;32.60;15.17;;;3.10;99.90;;;;;;4897353;29;20233;-75
2020/12/06 19:22:45;;;;;;;35.73;16.13;;;3.00;99.90;;;;;;4897877;29;20221;-75
2020/12/06 19:25:12;;;;;;;34.17;16.57;;;2.90;99.90;;;;;;4897174;29;20598;-73
2020/12/06 19:27:38;;;;;;;30.60;15.87;;;3.00;99.90;;;;;;4897913;29;20226;-75
2020/12/06 19:30:05;;;;;;;34.50;17.33;;;2.90;99.90;;;;;;4897309;29;20211;-75
2020/12/06 19:32:31;;;;;;;38.47;17.47;;;2.90;99.90;;;;;;4897356;29;20225;-74
2020/12/06 19:34:58;;;;;;;33.77;15.80;;;2.90;99.90;;;;;;4897001;29;20226;-75
2020/12/06 19:37:25;;;;;;;34.50;15.77;;;3.00;99.90;;;;;;4896882;29;20234;-75
2020/12/06 19:39:51;;;;;;;37.10;16.87;;;2.90;99.90;;;;;;4897064;29;20594;-76
2020/12/06 19:42:17;;;;;;;28.47;15.30;;;2.90;99.90;;;;;;4897436;29;20206;-74
2020/12/06 19:44:43;;;;;;;34.40;16.80;;;2.80;99.90;;;;;;4898382;29;20211;-73
2020/12/06 19:47:10;;;;;;;33.73;17.17;;;2.90;99.90;;;;;;4916404;29;20217;-77
2020/12/06 19:49:36;;;;;;;39.53;18.83;;;2.90;99.90;;;;;;4912739;29;20246;-76
2020/12/06 19:52:03;;;;;;;40.90;18.97;;;2.90;99.90;;;;;;4896623;29;20221;-77
2020/12/06 19:54:30;;;;;;;35.80;19.03;;;3.00;99.90;;;;;;4896436;29;20225;-76
2020/12/06 19:56:57;;;;;;;41.23;20.10;;;3.20;99.90;;;;;;4897115;29;20225;-71
2020/12/06 19:59:23;;;;;;;53.43;23.40;;;3.10;99.90;;;;;;4899059;29;20237;-76
2020/12/06 20:01:50;;;;;;;45.03;22.73;;;3.10;99.90;;;;;;4898297;29;20214;-77
2020/12/06 20:04:16;;;;;;;36.00;19.07;;;3.10;99.90;;;;;;4898425;29;20618;-77
2020/12/06 20:06:42;;;;;;;38.97;18.27;;;3.20;99.90;;;;;;4898334;29;20238;-76
2020/12/06 20:09:11;;;;;;;33.60;18.80;;;3.30;99.90;;;;;;4898380;29;20221;-76
2020/12/06 20:11:37;;;;;;;38.50;18.90;;;3.30;99.90;;;;;;4897708;29;20655;-76
2020/12/06 20:14:03;;;;;;;40.47;19.37;;;3.40;99.90;;;;;;4897767;29;20688;-76
2020/12/06 20:16:30;;;;;;;41.80;19.13;;;3.40;99.90;;;;;;4898276;29;20234;-76
2020/12/06 20:18:56;;;;;;;44.17;18.80;;;3.30;99.90;;;;;;4898061;29;20241;-76
2020/12/06 20:21:22;;;;;;;41.80;20.40;;;3.40;99.90;;;;;;4897906;29;20522;-76
2020/12/06 20:23:48;;;;;;;46.30;21.87;;;3.40;99.90;;;;;;4897888;29;20214;-76
2020/12/06 20:26:15;;;;;;;36.90;19.97;;;3.40;99.90;;;;;;4897424;29;20226;-76
2020/12/06 20:28:45;;;;;;;49.20;20.83;;;3.40;99.90;;;;;;4897907;29;20214;-76
2020/12/06 20:31:11;;;;;;;60.03;22.80;;;3.40;99.90;;;;;;4897976;29;20678;-76
2020/12/06 20:33:37;;;;;;;47.57;21.33;;;3.50;99.90;;;;;;4897815;29;20214;-77
2020/12/06 20:36:04;;;;;;;40.63;21.70;;;3.60;99.90;;;;;;4897732;29;20701;-76
2020/12/06 20:38:30;;;;;;;52.47;23.53;;;3.70;99.90;;;;;;4897894;29;20249;-79
2020/12/06 20:40:57;;;;;;;41.37;21.33;;;3.70;99.90;;;;;;4897896;29;20218;-77
2020/12/06 20:43:24;;;;;;;46.83;23.20;;;3.70;99.90;;;;;;4898033;29;20215;-76
2020/12/06 20:45:51;;;;;;;47.03;21.63;;;3.70;99.90;;;;;;4897422;29;20230;-76
2020/12/06 20:48:20;;;;;;;44.03;21.37;;;3.60;99.90;;;;;;4897744;29;20558;-77
2020/12/06 20:50:46;;;;;;;45.03;20.40;;;3.60;99.90;;;;;;4898037;29;20210;-77
2020/12/06 20:53:12;;;;;;;45.47;21.40;;;3.50;99.90;;;;;;4897947;29;20217;-78
2020/12/06 20:55:38;;;;;;;48.73;21.27;;;3.40;99.90;;;;;;4897442;29;20226;-81
2020/12/06 20:58:05;;;;;;;37.67;20.00;;;3.40;99.90;;;;;;4897616;29;20234;-78
2020/12/06 21:00:32;;;;;;;43.07;19.47;;;3.50;99.90;;;;;;4897799;29;20218;-80
2020/12/06 21:02:58;;;;;;;44.53;19.90;;;3.60;99.90;;;;;;4897825;29;20206;-78
2020/12/06 21:05:24;;;;;;;37.33;19.10;;;3.70;99.90;;;;;;4897428;29;20733;-78
2020/12/06 21:07:51;;;;;;;35.43;18.90;;;3.70;99.90;;;;;;4897616;29;20218;-78
2020/12/06 21:10:19;;;;;;;35.97;19.40;;;3.70;99.90;;;;;;4897423;29;20685;-78
2020/12/06 21:12:46;;;;;;;34.20;18.23;;;3.60;99.90;;;;;;4897926;29;20271;-78
2020/12/06 21:15:12;;;;;;;34.93;17.83;;;3.70;99.90;;;;;;4898134;29;20598;-81
2020/12/06 21:17:39;;;;;;;46.83;18.33;;;3.80;99.90;;;;;;4897529;29;20257;-78
2020/12/06 21:20:07;;;;;;;43.97;19.23;;;3.90;99.90;;;;;;4897247;29;20218;-75
2020/12/06 21:22:33;;;;;;;37.07;18.40;;;3.90;99.90;;;;;;4897393;29;20573;-81
2020/12/06 21:24:59;;;;;;;36.53;17.73;;;3.80;99.90;;;;;;4897177;29;20254;-77
2020/12/06 21:27:26;;;;;;;34.07;17.67;;;3.80;99.90;;;;;;4897546;29;20214;-78
2020/12/06 21:29:52;;;;;;;36.90;17.87;;;3.80;99.90;;;;;;4897702;29;20237;-78
2020/12/06 21:32:18;;;;;;;43.83;18.40;;;3.90;99.90;;;;;;4897756;29;20215;-78
2020/12/06 21:34:45;;;;;;;37.60;18.27;;;4.00;99.90;;;;;;4897296;29;20214;-78
2020/12/06 21:37:11;;;;;;;35.30;18.40;;;4.10;99.90;;;;;;4897196;29;20229;-78
2020/12/06 21:39:38;;;;;;;38.73;17.90;;;4.00;99.90;;;;;;4900400;29;20562;-78
2020/12/06 21:42:05;;;;;;;34.27;17.17;;;4.00;99.90;;;;;;4900979;29;20670;-78
2020/12/06 21:44:31;;;;;;;28.83;16.73;;;4.00;99.90;;;;;;4900739;29;20669;-80
2020/12/06 21:47:02;;;;;;;32.03;16.53;;;4.10;99.90;;;;;;4900862;29;20206;-78
2020/12/06 21:49:28;;;;;;;34.50;17.57;;;4.20;99.90;;;;;;4900666;29;20699;-78
2020/12/06 21:51:55;;;;;;;40.20;17.27;;;4.10;99.90;;;;;;4900097;29;20215;-78
2020/12/06 21:54:22;;;;;;;38.77;16.40;;;4.20;99.90;;;;;;4900698;29;20214;-81